sensor_id;sensor_type;location;lat;lon;timestamp;P1;durP1;ratioP1;P2;durP2;ratioP2
11524;SDS011;5819;49.648;8.330;2023-04-28T00:00:52;6.90;;;4.95;;
11524;SDS011;5819;49.648;8.330;2023-04-28T00:03:20;8.00;;;6.10;;
11524;SDS011;5819;49.648;8.330;2023-04-28T00:05:48;8.93;;;6.40;;
11524;SDS011;5819;49.648;8.330;2023-04-28T00:08:16;10.18;;;7.40;;
11524;SDS011;5819;49.648;8.330;2023-04-28T00:10:43;8.95;;;7.07;;
11524;SDS011;5819;49.648;8.330;2023-04-28T00:13:11;11.65;;;7.57;;
11524;SDS011;5819;49.648;8.330;2023-04-28T00:15:39;8.55;;;6.38;;
11524;SDS011;5819;49.648;8.330;2023-04-28T00:18:08;8.90;;;7.43;;
11524;SDS011;5819;49.648;8.330;2023-04-28T00:20:36;9.05;;;7.53;;
11524;SDS011;5819;49.648;8.330;2023-04-28T00:23:04;8.23;;;7.40;;
11524;SDS011;5819;49.648;8.330;2023-04-28T00:25:32;10.95;;;8.02;;
11524;SDS011;5819;49.648;8.330;2023-04-28T00:27:59;12.10;;;8.18;;
11524;SDS011;5819;49.648;8.330;2023-04-28T00:30:28;9.40;;;7.57;;
11524;SDS011;5819;49.648;8.330;2023-04-28T00:32:56;9.85;;;7.90;;
11524;SDS011;5819;49.648;8.330;2023-04-28T00:35:25;11.68;;;7.63;;
11524;SDS011;5819;49.648;8.330;2023-04-28T00:37:54;10.15;;;8.20;;
11524;SDS011;5819;49.648;8.330;2023-04-28T00:40:22;8.50;;;7.70;;
11524;SDS011;5819;49.648;8.330;2023-04-28T00:42:59;11.38;;;7.13;;
11524;SDS011;5819;49.648;8.330;2023-04-28T00:45:27;11.25;;;8.18;;
11524;SDS011;5819;49.648;8.330;2023-04-28T00:47:55;9.07;;;8.02;;
11524;SDS011;5819;49.648;8.330;2023-04-28T00:50:25;9.38;;;7.80;;
11524;SDS011;5819;49.648;8.330;2023-04-28T00:52:54;11.35;;;7.88;;
11524;SDS011;5819;49.648;8.330;2023-04-28T00:55:25;9.45;;;8.07;;
11524;SDS011;5819;49.648;8.330;2023-04-28T00:57:54;10.38;;;7.55;;
11524;SDS011;5819;49.648;8.330;2023-04-28T01:00:25;8.05;;;7.22;;
11524;SDS011;5819;49.648;8.330;2023-04-28T01:02:53;10.75;;;7.68;;
11524;SDS011;5819;49.648;8.330;2023-04-28T01:05:23;8.88;;;7.75;;
11524;SDS011;5819;49.648;8.330;2023-04-28T01:07:55;8.27;;;7.18;;
11524;SDS011;5819;49.648;8.330;2023-04-28T01:10:23;8.18;;;7.38;;
11524;SDS011;5819;49.648;8.330;2023-04-28T01:12:51;7.65;;;6.90;;
11524;SDS011;5819;49.648;8.330;2023-04-28T01:15:22;9.23;;;7.85;;
11524;SDS011;5819;49.648;8.330;2023-04-28T01:17:52;9.45;;;7.88;;
11524;SDS011;5819;49.648;8.330;2023-04-28T01:20:22;9.05;;;7.03;;
11524;SDS011;5819;49.648;8.330;2023-04-28T01:22:51;8.85;;;6.95;;
11524;SDS011;5819;49.648;8.330;2023-04-28T01:25:21;9.15;;;7.18;;
11524;SDS011;5819;49.648;8.330;2023-04-28T01:27:48;8.98;;;7.43;;
11524;SDS011;5819;49.648;8.330;2023-04-28T01:30:18;8.15;;;7.32;;
11524;SDS011;5819;49.648;8.330;2023-04-28T01:32:46;8.80;;;7.28;;
11524;SDS011;5819;49.648;8.330;2023-04-28T01:35:14;9.60;;;7.35;;
11524;SDS011;5819;49.648;8.330;2023-04-28T01:37:42;9.77;;;7.38;;
11524;SDS011;5819;49.648;8.330;2023-04-28T01:40:11;9.70;;;7.07;;
11524;SDS011;5819;49.648;8.330;2023-04-28T01:42:41;9.15;;;7.32;;
11524;SDS011;5819;49.648;8.330;2023-04-28T01:45:09;8.52;;;7.05;;
11524;SDS011;5819;49.648;8.330;2023-04-28T01:47:38;9.93;;;7.53;;
11524;SDS011;5819;49.648;8.330;2023-04-28T01:50:06;7.90;;;5.88;;
11524;SDS011;5819;49.648;8.330;2023-04-28T01:52:35;10.25;;;6.35;;
11524;SDS011;5819;49.648;8.330;2023-04-28T01:55:03;8.13;;;6.45;;
11524;SDS011;5819;49.648;8.330;2023-04-28T01:57:32;10.15;;;6.68;;
11524;SDS011;5819;49.648;8.330;2023-04-28T02:00:03;6.97;;;5.93;;
11524;SDS011;5819;49.648;8.330;2023-04-28T02:02:36;10.35;;;6.43;;
11524;SDS011;5819;49.648;8.330;2023-04-28T02:05:04;8.10;;;6.47;;
11524;SDS011;5819;49.648;8.330;2023-04-28T02:07:32;9.35;;;7.57;;
11524;SDS011;5819;49.648;8.330;2023-04-28T02:10:02;8.55;;;7.18;;
11524;SDS011;5819;49.648;8.330;2023-04-28T02:12:30;10.10;;;7.05;;
11524;SDS011;5819;49.648;8.330;2023-04-28T02:14:58;7.72;;;6.90;;
11524;SDS011;5819;49.648;8.330;2023-04-28T02:17:29;8.07;;;6.13;;
11524;SDS011;5819;49.648;8.330;2023-04-28T02:19:58;8.25;;;6.40;;
11524;SDS011;5819;49.648;8.330;2023-04-28T02:22:26;6.97;;;6.38;;
11524;SDS011;5819;49.648;8.330;2023-04-28T02:24:54;8.00;;;6.25;;
11524;SDS011;5819;49.648;8.330;2023-04-28T02:27:23;8.63;;;6.75;;
11524;SDS011;5819;49.648;8.330;2023-04-28T02:29:51;9.52;;;7.00;;
11524;SDS011;5819;49.648;8.330;2023-04-28T02:32:20;7.15;;;6.45;;
11524;SDS011;5819;49.648;8.330;2023-04-28T02:34:53;8.65;;;7.53;;
11524;SDS011;5819;49.648;8.330;2023-04-28T02:37:22;8.20;;;6.95;;
11524;SDS011;5819;49.648;8.330;2023-04-28T02:39:50;8.75;;;6.70;;
11524;SDS011;5819;49.648;8.330;2023-04-28T02:42:19;9.25;;;6.68;;
11524;SDS011;5819;49.648;8.330;2023-04-28T02:44:48;7.78;;;6.82;;
11524;SDS011;5819;49.648;8.330;2023-04-28T02:47:16;7.70;;;7.00;;
11524;SDS011;5819;49.648;8.330;2023-04-28T02:49:44;9.20;;;7.75;;
11524;SDS011;5819;49.648;8.330;2023-04-28T02:52:13;10.05;;;7.85;;
11524;SDS011;5819;49.648;8.330;2023-04-28T02:54:41;9.55;;;7.90;;
11524;SDS011;5819;49.648;8.330;2023-04-28T02:57:10;13.10;;;8.45;;
11524;SDS011;5819;49.648;8.330;2023-04-28T02:59:38;9.77;;;7.82;;
11524;SDS011;5819;49.648;8.330;2023-04-28T03:02:05;10.80;;;8.40;;
11524;SDS011;5819;49.648;8.330;2023-04-28T03:04:34;9.27;;;8.40;;
11524;SDS011;5819;49.648;8.330;2023-04-28T03:07:02;11.90;;;9.20;;
11524;SDS011;5819;49.648;8.330;2023-04-28T03:09:32;10.77;;;9.68;;
11524;SDS011;5819;49.648;8.330;2023-04-28T03:12:00;11.50;;;9.80;;
11524;SDS011;5819;49.648;8.330;2023-04-28T03:14:30;13.35;;;9.38;;
11524;SDS011;5819;49.648;8.330;2023-04-28T03:16:58;11.05;;;9.95;;
11524;SDS011;5819;49.648;8.330;2023-04-28T03:19:26;11.27;;;10.15;;
11524;SDS011;5819;49.648;8.330;2023-04-28T03:21:54;11.95;;;10.65;;
11524;SDS011;5819;49.648;8.330;2023-04-28T03:24:22;13.65;;;11.38;;
11524;SDS011;5819;49.648;8.330;2023-04-28T03:26:52;11.60;;;10.13;;
11524;SDS011;5819;49.648;8.330;2023-04-28T03:29:19;11.30;;;10.10;;
11524;SDS011;5819;49.648;8.330;2023-04-28T03:31:50;11.70;;;9.90;;
11524;SDS011;5819;49.648;8.330;2023-04-28T03:34:18;14.10;;;10.25;;
11524;SDS011;5819;49.648;8.330;2023-04-28T03:36:46;12.00;;;9.32;;
11524;SDS011;5819;49.648;8.330;2023-04-28T03:39:22;14.25;;;10.30;;
11524;SDS011;5819;49.648;8.330;2023-04-28T03:41:51;12.38;;;10.60;;
11524;SDS011;5819;49.648;8.330;2023-04-28T03:44:38;12.77;;;9.05;;
11524;SDS011;5819;49.648;8.330;2023-04-28T03:47:06;10.60;;;9.52;;
11524;SDS011;5819;49.648;8.330;2023-04-28T03:49:35;10.38;;;9.00;;
11524;SDS011;5819;49.648;8.330;2023-04-28T03:52:03;10.05;;;9.05;;
11524;SDS011;5819;49.648;8.330;2023-04-28T03:54:31;12.23;;;9.30;;
11524;SDS011;5819;49.648;8.330;2023-04-28T03:57:00;10.57;;;9.57;;
11524;SDS011;5819;49.648;8.330;2023-04-28T03:59:32;11.27;;;9.63;;
11524;SDS011;5819;49.648;8.330;2023-04-28T04:01:59;13.02;;;9.05;;
11524;SDS011;5819;49.648;8.330;2023-04-28T04:04:27;11.23;;;9.73;;
11524;SDS011;5819;49.648;8.330;2023-04-28T04:06:59;11.02;;;9.90;;
11524;SDS011;5819;49.648;8.330;2023-04-28T04:09:28;9.98;;;9.00;;
11524;SDS011;5819;49.648;8.330;2023-04-28T04:11:56;9.05;;;8.15;;
11524;SDS011;5819;49.648;8.330;2023-04-28T04:14:25;11.65;;;8.75;;
11524;SDS011;5819;49.648;8.330;2023-04-28T04:16:53;11.13;;;8.90;;
11524;SDS011;5819;49.648;8.330;2023-04-28T04:19:21;11.70;;;8.07;;
11524;SDS011;5819;49.648;8.330;2023-04-28T04:21:53;14.30;;;12.13;;
11524;SDS011;5819;49.648;8.330;2023-04-28T04:24:21;14.75;;;12.23;;
11524;SDS011;5819;49.648;8.330;2023-04-28T04:26:49;12.13;;;8.70;;
11524;SDS011;5819;49.648;8.330;2023-04-28T04:29:39;10.85;;;8.35;;
11524;SDS011;5819;49.648;8.330;2023-04-28T04:32:11;10.02;;;7.70;;
11524;SDS011;5819;49.648;8.330;2023-04-28T04:34:40;10.05;;;8.18;;
11524;SDS011;5819;49.648;8.330;2023-04-28T04:37:09;10.43;;;7.80;;
11524;SDS011;5819;49.648;8.330;2023-04-28T04:39:46;10.40;;;8.13;;
11524;SDS011;5819;49.648;8.330;2023-04-28T04:42:14;8.93;;;7.80;;
11524;SDS011;5819;49.648;8.330;2023-04-28T04:45:00;14.60;;;8.23;;
11524;SDS011;5819;49.648;8.330;2023-04-28T04:47:29;10.55;;;8.30;;
11524;SDS011;5819;49.648;8.330;2023-04-28T04:49:57;11.07;;;8.50;;
11524;SDS011;5819;49.648;8.330;2023-04-28T04:52:25;11.52;;;9.00;;
11524;SDS011;5819;49.648;8.330;2023-04-28T04:54:53;11.80;;;9.23;;
11524;SDS011;5819;49.648;8.330;2023-04-28T04:57:24;12.70;;;8.70;;
11524;SDS011;5819;49.648;8.330;2023-04-28T05:00:06;12.27;;;9.65;;
11524;SDS011;5819;49.648;8.330;2023-04-28T05:02:36;11.30;;;9.23;;
11524;SDS011;5819;49.648;8.330;2023-04-28T05:05:04;13.85;;;9.63;;
11524;SDS011;5819;49.648;8.330;2023-04-28T05:07:59;11.10;;;9.85;;
11524;SDS011;5819;49.648;8.330;2023-04-28T05:10:27;13.38;;;10.55;;
11524;SDS011;5819;49.648;8.330;2023-04-28T05:12:55;12.95;;;10.02;;
11524;SDS011;5819;49.648;8.330;2023-04-28T05:15:24;11.75;;;9.77;;
11524;SDS011;5819;49.648;8.330;2023-04-28T05:18:19;11.32;;;9.60;;
11524;SDS011;5819;49.648;8.330;2023-04-28T05:20:48;11.30;;;9.93;;
11524;SDS011;5819;49.648;8.330;2023-04-28T05:23:17;12.50;;;9.50;;
11524;SDS011;5819;49.648;8.330;2023-04-28T05:25:46;11.38;;;9.52;;
11524;SDS011;5819;49.648;8.330;2023-04-28T05:28:14;13.15;;;10.63;;
11524;SDS011;5819;49.648;8.330;2023-04-28T05:30:44;14.05;;;10.43;;
11524;SDS011;5819;49.648;8.330;2023-04-28T05:33:14;12.85;;;10.98;;
11524;SDS011;5819;49.648;8.330;2023-04-28T05:35:42;12.13;;;10.40;;
11524;SDS011;5819;49.648;8.330;2023-04-28T05:38:10;13.77;;;10.55;;
11524;SDS011;5819;49.648;8.330;2023-04-28T05:40:40;15.05;;;11.40;;
11524;SDS011;5819;49.648;8.330;2023-04-28T05:43:10;16.80;;;12.30;;
11524;SDS011;5819;49.648;8.330;2023-04-28T05:45:38;17.10;;;11.93;;
11524;SDS011;5819;49.648;8.330;2023-04-28T05:48:08;26.25;;;13.13;;
11524;SDS011;5819;49.648;8.330;2023-04-28T05:50:39;17.33;;;12.35;;
11524;SDS011;5819;49.648;8.330;2023-04-28T05:53:08;16.98;;;13.38;;
11524;SDS011;5819;49.648;8.330;2023-04-28T05:55:36;14.98;;;12.25;;
11524;SDS011;5819;49.648;8.330;2023-04-28T05:58:05;17.42;;;13.90;;
11524;SDS011;5819;49.648;8.330;2023-04-28T06:00:33;18.23;;;13.65;;
11524;SDS011;5819;49.648;8.330;2023-04-28T06:03:01;16.48;;;13.93;;
11524;SDS011;5819;49.648;8.330;2023-04-28T06:05:32;17.58;;;14.10;;
11524;SDS011;5819;49.648;8.330;2023-04-28T06:08:00;16.55;;;14.10;;
11524;SDS011;5819;49.648;8.330;2023-04-28T06:10:29;17.60;;;13.95;;
11524;SDS011;5819;49.648;8.330;2023-04-28T06:12:57;19.05;;;14.15;;
11524;SDS011;5819;49.648;8.330;2023-04-28T06:15:25;17.27;;;13.70;;
11524;SDS011;5819;49.648;8.330;2023-04-28T06:17:53;18.90;;;14.75;;
11524;SDS011;5819;49.648;8.330;2023-04-28T06:20:23;16.70;;;14.90;;
11524;SDS011;5819;49.648;8.330;2023-04-28T06:22:54;19.70;;;14.93;;
11524;SDS011;5819;49.648;8.330;2023-04-28T06:25:22;18.70;;;14.15;;
11524;SDS011;5819;49.648;8.330;2023-04-28T06:27:51;19.60;;;15.18;;
11524;SDS011;5819;49.648;8.330;2023-04-28T06:30:20;18.45;;;15.35;;
11524;SDS011;5819;49.648;8.330;2023-04-28T06:32:53;19.40;;;15.25;;
11524;SDS011;5819;49.648;8.330;2023-04-28T06:35:23;19.88;;;16.02;;
11524;SDS011;5819;49.648;8.330;2023-04-28T06:38:04;20.92;;;15.38;;
11524;SDS011;5819;49.648;8.330;2023-04-28T06:40:33;21.63;;;16.02;;
11524;SDS011;5819;49.648;8.330;2023-04-28T06:43:03;15.85;;;13.52;;
11524;SDS011;5819;49.648;8.330;2023-04-28T06:45:41;19.52;;;15.10;;
11524;SDS011;5819;49.648;8.330;2023-04-28T06:48:10;17.05;;;15.27;;
11524;SDS011;5819;49.648;8.330;2023-04-28T06:50:38;18.25;;;14.75;;
11524;SDS011;5819;49.648;8.330;2023-04-28T06:53:10;17.65;;;15.43;;
11524;SDS011;5819;49.648;8.330;2023-04-28T06:55:38;16.10;;;14.40;;
11524;SDS011;5819;49.648;8.330;2023-04-28T06:58:06;16.98;;;15.10;;
11524;SDS011;5819;49.648;8.330;2023-04-28T07:00:35;16.13;;;14.32;;
11524;SDS011;5819;49.648;8.330;2023-04-28T07:03:03;19.50;;;15.88;;
11524;SDS011;5819;49.648;8.330;2023-04-28T07:05:31;19.77;;;15.20;;
11524;SDS011;5819;49.648;8.330;2023-04-28T07:07:59;16.70;;;14.88;;
11524;SDS011;5819;49.648;8.330;2023-04-28T07:10:29;20.70;;;15.48;;
11524;SDS011;5819;49.648;8.330;2023-04-28T07:12:57;19.38;;;14.90;;
11524;SDS011;5819;49.648;8.330;2023-04-28T07:15:25;19.95;;;15.50;;
11524;SDS011;5819;49.648;8.330;2023-04-28T07:17:53;20.95;;;16.35;;
11524;SDS011;5819;49.648;8.330;2023-04-28T07:20:21;23.52;;;16.00;;
11524;SDS011;5819;49.648;8.330;2023-04-28T07:22:49;19.30;;;16.45;;
11524;SDS011;5819;49.648;8.330;2023-04-28T07:25:17;18.60;;;16.65;;
11524;SDS011;5819;49.648;8.330;2023-04-28T07:27:46;18.67;;;15.70;;
11524;SDS011;5819;49.648;8.330;2023-04-28T07:30:15;19.77;;;16.17;;
11524;SDS011;5819;49.648;8.330;2023-04-28T07:32:52;19.02;;;16.05;;
11524;SDS011;5819;49.648;8.330;2023-04-28T07:35:21;20.27;;;17.88;;
11524;SDS011;5819;49.648;8.330;2023-04-28T07:37:49;20.23;;;17.02;;
11524;SDS011;5819;49.648;8.330;2023-04-28T07:40:17;19.52;;;16.20;;
11524;SDS011;5819;49.648;8.330;2023-04-28T07:42:46;21.70;;;18.10;;
11524;SDS011;5819;49.648;8.330;2023-04-28T07:45:14;20.85;;;17.08;;
11524;SDS011;5819;49.648;8.330;2023-04-28T07:47:42;19.08;;;17.08;;
11524;SDS011;5819;49.648;8.330;2023-04-28T07:50:10;19.92;;;17.13;;
11524;SDS011;5819;49.648;8.330;2023-04-28T07:52:38;22.33;;;17.48;;
11524;SDS011;5819;49.648;8.330;2023-04-28T07:55:06;18.48;;;16.55;;
11524;SDS011;5819;49.648;8.330;2023-04-28T07:57:34;17.88;;;15.98;;
11524;SDS011;5819;49.648;8.330;2023-04-28T08:00:04;19.05;;;17.02;;
11524;SDS011;5819;49.648;8.330;2023-04-28T08:02:38;19.38;;;17.48;;
11524;SDS011;5819;49.648;8.330;2023-04-28T08:05:06;18.20;;;16.40;;
11524;SDS011;5819;49.648;8.330;2023-04-28T08:07:36;17.65;;;15.85;;
11524;SDS011;5819;49.648;8.330;2023-04-28T08:10:04;17.65;;;15.82;;
11524;SDS011;5819;49.648;8.330;2023-04-28T08:12:33;19.05;;;17.15;;
11524;SDS011;5819;49.648;8.330;2023-04-28T08:15:01;17.80;;;15.90;;
11524;SDS011;5819;49.648;8.330;2023-04-28T08:17:30;19.88;;;17.02;;
11524;SDS011;5819;49.648;8.330;2023-04-28T08:19:58;18.70;;;16.73;;
11524;SDS011;5819;49.648;8.330;2023-04-28T08:22:26;17.70;;;15.90;;
11524;SDS011;5819;49.648;8.330;2023-04-28T08:24:55;19.02;;;16.85;;
11524;SDS011;5819;49.648;8.330;2023-04-28T08:27:23;19.08;;;17.02;;
11524;SDS011;5819;49.648;8.330;2023-04-28T08:29:51;18.40;;;15.48;;
11524;SDS011;5819;49.648;8.330;2023-04-28T08:32:19;17.55;;;15.23;;
11524;SDS011;5819;49.648;8.330;2023-04-28T08:34:48;16.42;;;14.80;;
11524;SDS011;5819;49.648;8.330;2023-04-28T08:37:15;17.20;;;15.50;;
11524;SDS011;5819;49.648;8.330;2023-04-28T08:39:43;16.88;;;15.13;;
11524;SDS011;5819;49.648;8.330;2023-04-28T08:42:11;15.10;;;13.70;;
11524;SDS011;5819;49.648;8.330;2023-04-28T08:44:40;18.17;;;14.95;;
11524;SDS011;5819;49.648;8.330;2023-04-28T08:47:09;15.98;;;14.52;;
11524;SDS011;5819;49.648;8.330;2023-04-28T08:49:39;17.83;;;15.20;;
11524;SDS011;5819;49.648;8.330;2023-04-28T08:52:10;16.90;;;14.63;;
11524;SDS011;5819;49.648;8.330;2023-04-28T08:54:43;16.02;;;14.40;;
11524;SDS011;5819;49.648;8.330;2023-04-28T08:57:12;16.20;;;13.50;;
11524;SDS011;5819;49.648;8.330;2023-04-28T08:59:40;15.55;;;14.07;;
11524;SDS011;5819;49.648;8.330;2023-04-28T09:02:08;16.13;;;13.57;;
11524;SDS011;5819;49.648;8.330;2023-04-28T09:04:36;13.73;;;12.23;;
11524;SDS011;5819;49.648;8.330;2023-04-28T09:07:10;13.88;;;12.57;;
11524;SDS011;5819;49.648;8.330;2023-04-28T09:09:39;13.25;;;12.07;;
11524;SDS011;5819;49.648;8.330;2023-04-28T09:12:07;12.60;;;11.52;;
11524;SDS011;5819;49.648;8.330;2023-04-28T09:14:35;13.23;;;11.98;;
11524;SDS011;5819;49.648;8.330;2023-04-28T09:17:08;13.18;;;11.85;;
11524;SDS011;5819;49.648;8.330;2023-04-28T09:19:38;13.10;;;11.80;;
11524;SDS011;5819;49.648;8.330;2023-04-28T09:22:08;11.57;;;10.40;;
11524;SDS011;5819;49.648;8.330;2023-04-28T09:24:52;12.98;;;11.68;;
11524;SDS011;5819;49.648;8.330;2023-04-28T09:27:24;11.77;;;10.73;;
11524;SDS011;5819;49.648;8.330;2023-04-28T09:29:54;12.75;;;11.35;;
11524;SDS011;5819;49.648;8.330;2023-04-28T09:32:22;12.25;;;10.65;;
11524;SDS011;5819;49.648;8.330;2023-04-28T09:34:53;11.85;;;10.63;;
11524;SDS011;5819;49.648;8.330;2023-04-28T09:37:23;12.02;;;10.30;;
11524;SDS011;5819;49.648;8.330;2023-04-28T09:39:54;13.07;;;10.30;;
11524;SDS011;5819;49.648;8.330;2023-04-28T09:42:32;10.68;;;9.68;;
11524;SDS011;5819;49.648;8.330;2023-04-28T09:45:02;10.52;;;9.63;;
11524;SDS011;5819;49.648;8.330;2023-04-28T09:47:31;13.45;;;10.75;;
11524;SDS011;5819;49.648;8.330;2023-04-28T09:50:01;11.00;;;10.00;;
11524;SDS011;5819;49.648;8.330;2023-04-28T09:52:30;10.10;;;9.10;;
11524;SDS011;5819;49.648;8.330;2023-04-28T09:55:02;10.65;;;9.20;;
11524;SDS011;5819;49.648;8.330;2023-04-28T09:57:32;12.45;;;9.82;;
11524;SDS011;5819;49.648;8.330;2023-04-28T10:00:03;10.18;;;9.18;;
11524;SDS011;5819;49.648;8.330;2023-04-28T10:02:33;9.60;;;8.70;;
11524;SDS011;5819;49.648;8.330;2023-04-28T10:05:05;9.07;;;7.90;;
11524;SDS011;5819;49.648;8.330;2023-04-28T10:07:36;8.15;;;7.35;;
11524;SDS011;5819;49.648;8.330;2023-04-28T10:10:07;9.30;;;7.53;;
11524;SDS011;5819;49.648;8.330;2023-04-28T10:12:35;8.90;;;8.00;;
11524;SDS011;5819;49.648;8.330;2023-04-28T10:15:05;9.13;;;7.07;;
11524;SDS011;5819;49.648;8.330;2023-04-28T10:17:34;7.93;;;7.20;;
11524;SDS011;5819;49.648;8.330;2023-04-28T10:20:04;8.20;;;7.40;;
11524;SDS011;5819;49.648;8.330;2023-04-28T10:22:36;8.25;;;6.03;;
11524;SDS011;5819;49.648;8.330;2023-04-28T10:25:25;7.65;;;7.00;;
11524;SDS011;5819;49.648;8.330;2023-04-28T10:27:55;6.82;;;6.20;;
11524;SDS011;5819;49.648;8.330;2023-04-28T10:30:25;7.35;;;6.65;;
11524;SDS011;5819;49.648;8.330;2023-04-28T10:35:52;6.65;;;5.88;;
11524;SDS011;5819;49.648;8.330;2023-04-28T10:41:32;7.28;;;6.15;;
11524;SDS011;5819;49.648;8.330;2023-04-28T10:44:00;8.15;;;5.97;;
11524;SDS011;5819;49.648;8.330;2023-04-28T10:46:28;5.90;;;5.38;;
11524;SDS011;5819;49.648;8.330;2023-04-28T10:52:48;12.82;;;11.52;;
11524;SDS011;5819;49.648;8.330;2023-04-28T10:55:29;7.35;;;6.65;;
11524;SDS011;5819;49.648;8.330;2023-04-28T11:03:52;7.00;;;6.30;;
11524;SDS011;5819;49.648;8.330;2023-04-28T11:06:26;6.55;;;6.00;;
11524;SDS011;5819;49.648;8.330;2023-04-28T11:08:57;6.97;;;6.28;;
11524;SDS011;5819;49.648;8.330;2023-04-28T11:11:28;9.00;;;6.85;;
11524;SDS011;5819;49.648;8.330;2023-04-28T11:17:01;8.05;;;7.15;;
11524;SDS011;5819;49.648;8.330;2023-04-28T11:19:30;8.80;;;7.90;;
11524;SDS011;5819;49.648;8.330;2023-04-28T11:21:59;9.25;;;7.82;;
11524;SDS011;5819;49.648;8.330;2023-04-28T11:24:29;11.15;;;8.80;;
11524;SDS011;5819;49.648;8.330;2023-04-28T11:26:57;10.20;;;9.07;;
11524;SDS011;5819;49.648;8.330;2023-04-28T11:29:31;11.23;;;10.13;;
11524;SDS011;5819;49.648;8.330;2023-04-28T11:32:01;12.45;;;11.18;;
11524;SDS011;5819;49.648;8.330;2023-04-28T11:34:30;12.07;;;10.75;;
11524;SDS011;5819;49.648;8.330;2023-04-28T11:36:58;12.07;;;10.88;;
11524;SDS011;5819;49.648;8.330;2023-04-28T11:39:27;13.18;;;11.77;;
11524;SDS011;5819;49.648;8.330;2023-04-28T11:41:56;12.98;;;11.68;;
11524;SDS011;5819;49.648;8.330;2023-04-28T11:44:25;14.25;;;12.85;;
11524;SDS011;5819;49.648;8.330;2023-04-28T11:46:57;15.40;;;13.02;;
11524;SDS011;5819;49.648;8.330;2023-04-28T11:49:28;13.55;;;12.27;;
11524;SDS011;5819;49.648;8.330;2023-04-28T11:52:03;15.13;;;12.90;;
11524;SDS011;5819;49.648;8.330;2023-04-28T11:54:32;16.77;;;15.18;;
11524;SDS011;5819;49.648;8.330;2023-04-28T11:57:00;16.52;;;14.82;;
11524;SDS011;5819;49.648;8.330;2023-04-28T11:59:30;13.95;;;12.48;;
11524;SDS011;5819;49.648;8.330;2023-04-28T12:02:01;14.80;;;13.25;;
11524;SDS011;5819;49.648;8.330;2023-04-28T12:04:33;17.45;;;15.38;;
11524;SDS011;5819;49.648;8.330;2023-04-28T12:07:03;17.08;;;15.32;;
11524;SDS011;5819;49.648;8.330;2023-04-28T12:09:33;14.68;;;13.18;;
11524;SDS011;5819;49.648;8.330;2023-04-28T12:12:01;15.27;;;13.88;;
11524;SDS011;5819;49.648;8.330;2023-04-28T12:14:31;15.20;;;13.15;;
11524;SDS011;5819;49.648;8.330;2023-04-28T12:17:02;13.95;;;12.65;;
11524;SDS011;5819;49.648;8.330;2023-04-28T12:19:41;14.65;;;13.35;;
11524;SDS011;5819;49.648;8.330;2023-04-28T12:22:11;15.07;;;13.60;;
11524;SDS011;5819;49.648;8.330;2023-04-28T12:24:43;55.85;;;45.08;;
11524;SDS011;5819;49.648;8.330;2023-04-28T12:27:15;25.17;;;22.10;;
11524;SDS011;5819;49.648;8.330;2023-04-28T12:29:47;17.08;;;14.88;;
11524;SDS011;5819;49.648;8.330;2023-04-28T12:32:16;15.40;;;13.73;;
11524;SDS011;5819;49.648;8.330;2023-04-28T12:34:45;16.10;;;14.27;;
11524;SDS011;5819;49.648;8.330;2023-04-28T12:37:16;15.55;;;13.75;;
11524;SDS011;5819;49.648;8.330;2023-04-28T12:39:44;15.82;;;13.25;;
11524;SDS011;5819;49.648;8.330;2023-04-28T12:42:12;15.35;;;13.05;;
11524;SDS011;5819;49.648;8.330;2023-04-28T12:44:40;14.63;;;13.13;;
11524;SDS011;5819;49.648;8.330;2023-04-28T12:47:08;15.60;;;14.00;;
11524;SDS011;5819;49.648;8.330;2023-04-28T12:55:44;14.90;;;13.48;;
11524;SDS011;5819;49.648;8.330;2023-04-28T12:58:12;14.70;;;13.18;;
11524;SDS011;5819;49.648;8.330;2023-04-28T13:00:40;13.57;;;12.13;;
11524;SDS011;5819;49.648;8.330;2023-04-28T13:03:08;13.80;;;12.40;;
11524;SDS011;5819;49.648;8.330;2023-04-28T13:05:36;14.20;;;12.73;;
11524;SDS011;5819;49.648;8.330;2023-04-28T13:08:04;17.17;;;14.02;;
11524;SDS011;5819;49.648;8.330;2023-04-28T13:10:32;13.27;;;10.98;;
11524;SDS011;5819;49.648;8.330;2023-04-28T13:13:01;11.10;;;10.00;;
11524;SDS011;5819;49.648;8.330;2023-04-28T13:15:30;10.60;;;9.40;;
11524;SDS011;5819;49.648;8.330;2023-04-28T13:17:58;12.50;;;8.52;;
11524;SDS011;5819;49.648;8.330;2023-04-28T13:20:26;10.15;;;8.02;;
11524;SDS011;5819;49.648;8.330;2023-04-28T13:22:55;31.15;;;25.10;;
11524;SDS011;5819;49.648;8.330;2023-04-28T13:36:11;7.38;;;6.47;;
11524;SDS011;5819;49.648;8.330;2023-04-28T13:38:40;7.13;;;6.10;;
11524;SDS011;5819;49.648;8.330;2023-04-28T13:41:10;5.80;;;5.22;;
11524;SDS011;5819;49.648;8.330;2023-04-28T13:43:38;5.60;;;5.03;;
11524;SDS011;5819;49.648;8.330;2023-04-28T13:46:06;8.27;;;5.35;;
11524;SDS011;5819;49.648;8.330;2023-04-28T13:48:34;6.05;;;5.45;;
11524;SDS011;5819;49.648;8.330;2023-04-28T13:51:02;6.50;;;4.05;;
11524;SDS011;5819;49.648;8.330;2023-04-28T13:53:33;5.05;;;4.00;;
11524;SDS011;5819;49.648;8.330;2023-04-28T13:56:02;8.13;;;4.78;;
11524;SDS011;5819;49.648;8.330;2023-04-28T13:58:30;6.72;;;4.65;;
11524;SDS011;5819;49.648;8.330;2023-04-28T14:00:58;7.10;;;5.55;;
11524;SDS011;5819;49.648;8.330;2023-04-28T14:03:26;6.60;;;4.53;;
11524;SDS011;5819;49.648;8.330;2023-04-28T14:05:55;4.55;;;4.07;;
11524;SDS011;5819;49.648;8.330;2023-04-28T14:08:24;5.88;;;3.78;;
11524;SDS011;5819;49.648;8.330;2023-04-28T14:10:54;6.60;;;3.35;;
11524;SDS011;5819;49.648;8.330;2023-04-28T14:13:22;3.95;;;2.53;;
11524;SDS011;5819;49.648;8.330;2023-04-28T14:15:50;5.47;;;3.00;;
11524;SDS011;5819;49.648;8.330;2023-04-28T14:18:25;5.90;;;3.22;;
11524;SDS011;5819;49.648;8.330;2023-04-28T14:20:52;4.05;;;2.97;;
11524;SDS011;5819;49.648;8.330;2023-04-28T14:23:21;5.32;;;3.20;;
11524;SDS011;5819;49.648;8.330;2023-04-28T14:25:50;5.45;;;3.65;;
11524;SDS011;5819;49.648;8.330;2023-04-28T14:28:23;5.45;;;3.83;;
11524;SDS011;5819;49.648;8.330;2023-04-28T14:30:51;10.18;;;3.90;;
11524;SDS011;5819;49.648;8.330;2023-04-28T14:33:20;5.78;;;3.20;;
11524;SDS011;5819;49.648;8.330;2023-04-28T14:35:48;6.50;;;3.10;;
11524;SDS011;5819;49.648;8.330;2023-04-28T14:38:16;2.92;;;1.77;;
11524;SDS011;5819;49.648;8.330;2023-04-28T14:40:44;4.20;;;2.13;;
11524;SDS011;5819;49.648;8.330;2023-04-28T14:43:12;4.38;;;3.13;;
11524;SDS011;5819;49.648;8.330;2023-04-28T14:45:41;5.40;;;2.50;;
11524;SDS011;5819;49.648;8.330;2023-04-28T14:48:10;5.50;;;1.90;;
11524;SDS011;5819;49.648;8.330;2023-04-28T14:50:38;2.08;;;1.27;;
11524;SDS011;5819;49.648;8.330;2023-04-28T14:53:07;3.63;;;1.50;;
11524;SDS011;5819;49.648;8.330;2023-04-28T14:55:35;2.38;;;1.30;;
11524;SDS011;5819;49.648;8.330;2023-04-28T14:58:03;3.13;;;2.33;;
11524;SDS011;5819;49.648;8.330;2023-04-28T15:00:30;3.97;;;2.75;;
11524;SDS011;5819;49.648;8.330;2023-04-28T15:03:00;2.13;;;1.25;;
11524;SDS011;5819;49.648;8.330;2023-04-28T15:05:27;1.25;;;0.90;;
11524;SDS011;5819;49.648;8.330;2023-04-28T15:07:55;1.02;;;0.70;;
11524;SDS011;5819;49.648;8.330;2023-04-28T15:10:25;1.73;;;0.60;;
11524;SDS011;5819;49.648;8.330;2023-04-28T15:12:57;2.58;;;0.75;;
11524;SDS011;5819;49.648;8.330;2023-04-28T15:15:26;1.38;;;0.80;;
11524;SDS011;5819;49.648;8.330;2023-04-28T15:17:53;2.88;;;0.98;;
11524;SDS011;5819;49.648;8.330;2023-04-28T15:20:27;1.00;;;0.65;;
11524;SDS011;5819;49.648;8.330;2023-04-28T15:22:55;3.00;;;0.60;;
11524;SDS011;5819;49.648;8.330;2023-04-28T15:25:24;1.40;;;0.75;;
11524;SDS011;5819;49.648;8.330;2023-04-28T15:27:52;0.90;;;0.60;;
11524;SDS011;5819;49.648;8.330;2023-04-28T15:30:20;2.40;;;0.90;;
11524;SDS011;5819;49.648;8.330;2023-04-28T15:32:48;4.10;;;0.80;;
11524;SDS011;5819;49.648;8.330;2023-04-28T15:35:17;1.52;;;0.77;;
11524;SDS011;5819;49.648;8.330;2023-04-28T15:37:46;1.17;;;0.70;;